Flight Track Log - Related Links

Times and Time Zones

All times are in EDT time to prevent confusion due to time zone crossing. See the UAL4380 flight status page for this flight to view local times or setup timezone preferences in your user account.

Time Position Orientation Groundspeed Altitude Reporting Facility
EDT Latitude Longitude Course Direction KTS MPH feet Rate Location/Type
Mon 07:00:51 AM 30.7128 -88.2639 250° West 153 176 1,200  Level Houston Center
Mon 07:01:52 AM 30.7478 -88.3075 313° West 192 221 3,600 2,033 Climbing Houston Center
Mon 07:02:52 AM 30.7297 -88.3819 254° West 240 276 5,300 1,850 Climbing Houston Center
Mon 07:03:52 AM 30.7064 -88.4611 251° West 254 292 7,300 2,231 Climbing Houston Center
Mon 07:04:53 AM 30.6822 -88.5444 251° West 267 307 9,800 2,182 Climbing Houston Center
Mon 07:05:00 AM 30.5528 -88.8566 252° West  Level FlightAware Approximate
Mon 07:05:53 AM 30.6572 -88.6264 250° West 269 310 11,700  Level Houston Center
Mon 07:06:00 AM 30.5115 -88.9544 250° West  Level FlightAware Approximate
Mon 07:06:54 AM 30.6314 -88.7131 251° West 281 323 13,400  Level Houston Center
Mon 07:07:54 AM 30.6047 -88.8033 251° West 295 339 15,100 1,736 Climbing Houston Center
Mon 07:08:55 AM 30.5906 -88.8969 260° West 297 342 16,900 1,835 Climbing Houston Center
Mon 07:09:55 AM 30.5719 -89.0056 259° West 299 344 18,800 1,785 Climbing Houston Center
Mon 07:10:56 AM 30.5586 -89.0992 261° West 296 341 20,500 1,686 Climbing Houston Center
Mon 07:11:56 AM 30.5486 -89.1933 263° West 296 341 22,200 1,686 Climbing Houston Center
Mon 07:12:57 AM 30.5364 -89.2861 261° West 293 337 23,900 1,686 Climbing Houston Center
Mon 07:13:57 AM 30.5217 -89.3786 260° West 292 336 25,600 1,438 Climbing Houston Center
Mon 07:14:58 AM 30.4917 -89.4642 248° West 287 330 26,800 1,180 Climbing Houston Center
Mon 07:15:59 AM 30.4625 -89.5525 249° West 291 335 28,000 1,180 Climbing Houston Center
Mon 07:17:00 AM 30.4342 -89.6406 250° West 293 337 29,200 1,240 Climbing Houston Center
Mon 07:18:00 AM 30.4047 -89.7267 248° West 292 336 30,500 1,289 Climbing Houston Center
Mon 07:19:01 AM 30.3692 -89.8225 247° West 299 344 31,800 738 Climbing Houston Center
Mon 07:20:02 AM 30.3400 -89.9206 251° West 310 357 32,000 99 Climbing Houston Center
Mon 07:21:02 AM 30.3053 -90.0228 249° West 339 390 32,000  Level Houston Center
Mon 07:22:03 AM 30.2681 -90.1328 249° West 368 423 32,000  Level Houston Center
Mon 07:23:04 AM 30.2289 -90.2489 249° West 388 447 32,000  Level Houston Center
Mon 07:24:05 AM 30.1889 -90.3675 249° West 395 455 32,000  Level Houston Center
Mon 07:25:06 AM 30.1486 -90.4814 248° West 386 444 32,000  Level Houston Center
Mon 07:26:07 AM 30.1108 -90.5967 249° West 386 444 32,000 -49 Level Houston Center
Mon 07:27:08 AM 30.0697 -90.7133 248° West 392 451 31,900  Descending Houston Center
Mon 07:28:09 AM 30.0303 -90.8292 249° West 390 449 32,000 50 Climbing Houston Center
Mon 07:29:09 AM 29.9889 -90.9458 248° West 393 452 32,000  Level Houston Center
Mon 07:30:10 AM 29.9486 -91.0642 249° West 396 456 32,000  Level Houston Center
Mon 07:31:11 AM 29.9075 -91.1828 248° West 398 458 32,000  Level Houston Center
Mon 07:32:12 AM 29.8581 -91.3250 248° West 400 460 32,000  Level Houston Center
Mon 07:33:13 AM 29.8156 -91.4442 248° West 405 466 32,000  Level Houston Center
Mon 07:34:14 AM 29.7753 -91.5636 249° West 402 463 32,000  Level Houston Center
Mon 07:35:15 AM 29.7322 -91.6839 248° West 405 466 32,000  Level Houston Center
Mon 07:36:16 AM 29.6906 -91.8017 248° West 406 467 32,000  Level Houston Center
Mon 07:37:17 AM 29.6486 -91.9211 248° West 405 466 32,000  Level Houston Center
Mon 07:38:18 AM 29.6061 -92.0408 248° West 403 464 32,000  Level Houston Center
Mon 07:39:19 AM 29.5639 -92.1606 248° West 404 465 32,000 -49 Level Houston Center
Mon 07:40:20 AM 29.5206 -92.2800 247° West 404 465 31,900  Descending Houston Center
Mon 07:41:21 AM 29.4772 -92.3989 247° West 404 465 32,000  Climbing Houston Center
Mon 07:42:22 AM 29.4600 -92.5247 261° West 405 466 31,900  Descending Houston Center
Mon 07:43:24 AM 29.4639 -92.6533 272° West 403 464 32,000 49 Climbing Houston Center
Mon 07:44:25 AM 29.4728 -92.8069 274° West 403 464 32,000 -443 Level Houston Center
Mon 07:45:26 AM 29.4783 -92.9378 273° West 409 471 31,100 -1,131 Descending Houston Center
Mon 07:46:27 AM 29.4839 -93.0667 273° West 405 466 29,700 -1,377 Descending Houston Center
Mon 07:47:28 AM 29.4894 -93.1986 273° West 411 473 28,300 -1,426 Descending Houston Center
Mon 07:48:29 AM 29.4950 -93.3328 273° West 419 482 26,800 -1,426 Descending Houston Center
Mon 07:49:30 AM 29.5008 -93.4678 273° West 422 486 25,400 -1,475 Descending Houston Center
Mon 07:50:31 AM 29.5064 -93.6019 273° West 420 483 23,800 -1,770 Descending Houston Center
Mon 07:51:32 AM 29.5108 -93.7292 272° West 403 464 21,800 -2,000 Descending Houston Center
Mon 07:52:34 AM 29.5153 -93.8533 272° West 392 451 19,700 -2,146 Descending Houston Center
Mon 07:53:35 AM 29.5203 -93.9733 273° West 380 437 17,400 -2,345 Descending Houston Center
Mon 07:54:01 AM 29.5225 -94.0389 272° West 364 419 16,300 -1,967 Descending Houston Center
Mon 07:54:36 AM 29.5244 -94.0889 273° West 366 421 15,400 -1,875 Descending Houston Center
Mon 07:55:37 AM 29.5281 -94.2042 272° West 354 407 13,300 -1,116 Descending Houston Center
Mon 07:56:45 AM 29.5581 -94.3300 285° West 323 372 13,000 -148 Descending Houston Center
Mon 07:57:39 AM 29.5981 -94.3886 308° West 332 382 13,000 -164 Level Houston Center
Mon 07:57:58 AM 29.6272 -94.4342 306° West 336 387 12,800 -1,935 Descending Houston Center
Mon 07:58:41 AM 29.6647 -94.4906 307° West 333 383 11,000 -2,361 Descending Houston Center
Mon 07:58:59 AM 29.6817 -94.5183 305° West 328 377 10,400 -984 Descending Houston Center
Mon 07:59:42 AM 29.7178 -94.5728 307° West 324 373 10,000 -393 Descending Houston Center
Mon 08:00:00 AM 29.7336 -94.5983 306° West 308 354 10,000  Level Houston Center
Mon 08:00:48 AM 29.7706 -94.6539 307° West 243 280 10,000 -115 Level Houston Center
Mon 08:01:44 AM 29.8053 -94.7061 307° West 255 293 9,800 -615 Descending Houston Center
Mon 08:02:45 AM 29.8481 -94.7703 308° West 254 292 8,800 -984 Descending Houston Center
Mon 08:03:46 AM 29.8886 -94.8342 306° West 251 289 7,800 -976 Descending Houston Center
Mon 08:04:48 AM 29.9317 -94.9011 307° West 259 298 6,800 -976 Descending Houston Center
Mon 08:05:49 AM 29.9736 -94.9669 306° West 256 295 5,800 -1,059 Descending Houston Center
Mon 08:06:47 AM 29.9931 -95.0478 286° West 240 276 4,700 -1,160 Descending Houston Center
Mon 08:07:48 AM 29.9939 -95.1225 271° West 213 245 3,500 -1,082 Descending Houston Center
Mon 08:08:49 AM 29.9931 -95.1831 269° West 184 212 2,500 -934 Descending Houston Center
Mon 08:09:50 AM 29.9942 -95.2408 271° West 173 199 1,600 -836 Descending Houston Center
Mon 08:10:51 AM 29.9922 -95.2867 267° West 147 169 800 -787 Descending Houston Center

Login

Don't have an account? Register now (free) for customized features, flight alerts, and more!